Time;durP1;ratioP1;P1;durP2;ratioP2;P2;SDS_P1;SDS_P2;PMS_P1;PMS_P2;Temp;Humidity;BMP_temperature;BMP_pressure;BME280_temperature;BME280_humidity;BME280_pressure;Samples;Min_cycle;Max_cycle;Signal;HPM_P1;HPM_P2
2024/01/25 00:00:46;;;;;;;1.60;1.10;;;8.80;98.20;;;;;;5074109;28;20457;-84
2024/01/25 00:03:13;;;;;;;1.60;1.20;;;8.80;98.20;;;;;;5061332;28;20560;-83
2024/01/25 00:05:39;;;;;;;1.57;1.20;;;8.80;98.20;;;;;;5075328;28;20475;-84
2024/01/25 00:08:08;;;;;;;1.60;1.20;;;8.70;98.20;;;;;;5054823;28;20505;-84
2024/01/25 00:10:34;;;;;;;1.60;1.20;;;8.70;98.20;;;;;;5065749;28;20482;-84
2024/01/25 00:13:05;;;;;;;1.60;1.20;;;8.70;98.20;;;;;;5047428;28;20554;-84
2024/01/25 00:15:31;;;;;;;1.60;1.20;;;8.80;98.20;;;;;;5075344;28;20457;-82
2024/01/25 00:17:58;;;;;;;2.93;2.73;;;8.80;98.20;;;;;;5057996;28;20481;-82
2024/01/25 00:20:25;;;;;;;1.60;1.20;;;8.80;98.20;;;;;;5066333;28;20945;-82
2024/01/25 00:22:52;;;;;;;1.57;1.20;;;8.80;98.20;;;;;;5044562;28;20585;-81
2024/01/25 00:25:20;;;;;;;1.60;1.20;;;8.80;98.20;;;;;;5072234;28;20548;-82
2024/01/25 00:27:47;;;;;;;1.60;1.20;;;8.80;98.20;;;;;;5063082;28;20481;-84
2024/01/25 00:30:15;;;;;;;1.60;1.30;;;8.80;98.20;;;;;;5065447;28;20482;-82
2024/01/25 00:32:41;;;;;;;1.60;1.20;;;8.80;98.20;;;;;;5063592;28;20572;-82
2024/01/25 00:35:10;;;;;;;1.60;1.20;;;8.80;98.20;;;;;;5070788;28;20508;-82
2024/01/25 00:37:40;;;;;;;1.60;1.20;;;8.70;98.20;;;;;;5066018;28;20850;-82
2024/01/25 00:40:08;;;;;;;1.57;1.10;;;8.70;98.20;;;;;;5065561;28;20947;-82
2024/01/25 00:42:42;;;;;;;1.60;1.20;;;8.70;98.20;;;;;;5063224;28;20485;-82
2024/01/25 00:45:10;;;;;;;1.60;1.20;;;8.70;98.20;;;;;;5068772;28;20453;-82
2024/01/25 00:47:43;;;;;;;1.57;1.20;;;8.70;98.20;;;;;;5062718;28;20474;-85
2024/01/25 00:50:11;;;;;;;1.60;1.20;;;8.70;98.20;;;;;;5073141;28;20525;-87
2024/01/25 00:52:38;;;;;;;1.60;1.20;;;8.60;98.20;;;;;;5052301;28;20518;-86
2024/01/25 00:55:06;;;;;;;1.60;1.20;;;8.60;98.20;;;;;;5071756;28;20467;-86
2024/01/25 00:57:33;;;;;;;1.60;1.20;;;8.60;98.20;;;;;;5060769;28;20481;-86
2024/01/25 01:00:12;;;;;;;1.60;1.20;;;8.50;98.20;;;;;;5067667;28;20454;-85
2024/01/25 01:02:43;;;;;;;1.60;1.20;;;8.50;98.20;;;;;;5053249;28;20490;-84
2024/01/25 01:05:16;;;;;;;1.60;1.20;;;8.50;98.20;;;;;;5071557;28;20755;-84
2024/01/25 01:07:44;;;;;;;1.70;1.27;;;8.40;98.20;;;;;;5055544;28;20482;-86
2024/01/25 01:10:11;;;;;;;2.93;2.70;;;8.40;98.20;;;;;;5073809;28;20477;-84
2024/01/25 01:12:38;;;;;;;1.60;1.20;;;8.40;98.20;;;;;;5052927;28;20915;-87
2024/01/25 01:15:07;;;;;;;1.60;1.20;;;8.30;98.20;;;;;;5071805;28;20739;-84
2024/01/25 01:17:34;;;;;;;1.60;1.20;;;8.30;98.20;;;;;;5067444;28;20600;-86
2024/01/25 01:20:04;;;;;;;1.60;1.30;;;8.30;98.20;;;;;;5071519;28;20465;-85
2024/01/25 01:22:46;;;;;;;1.60;1.30;;;8.20;98.20;;;;;;5066840;28;21047;-86
2024/01/25 01:25:13;;;;;;;1.60;1.30;;;8.20;98.20;;;;;;5071976;28;20465;-84
2024/01/25 01:27:40;;;;;;;1.60;1.20;;;8.20;98.20;;;;;;5066011;28;20604;-87
2024/01/25 01:30:10;;;;;;;1.60;1.20;;;8.10;98.20;;;;;;5076877;28;20495;-84
2024/01/25 01:32:41;;;;;;;1.60;1.20;;;8.20;98.20;;;;;;5046754;28;20471;-86
2024/01/25 01:35:08;;;;;;;1.60;1.30;;;8.10;98.20;;;;;;5071712;28;20935;-85
2024/01/25 01:37:35;;;;;;;1.60;1.30;;;8.10;98.20;;;;;;5060332;28;20508;-84
2024/01/25 01:40:02;;;;;;;1.60;1.20;;;8.10;98.20;;;;;;5074014;28;20504;-85
2024/01/25 01:42:30;;;;;;;1.60;1.20;;;8.00;98.20;;;;;;5062114;28;20478;-85
2024/01/25 01:44:57;;;;;;;1.60;1.20;;;8.00;98.20;;;;;;5077264;28;20548;-88
2024/01/25 01:47:25;;;;;;;1.60;1.20;;;8.00;98.20;;;;;;5064423;28;20474;-84
2024/01/25 01:49:52;;;;;;;1.60;1.30;;;8.00;98.20;;;;;;5073743;28;20530;-85
2024/01/25 01:52:19;;;;;;;1.60;1.20;;;8.00;98.20;;;;;;5064787;28;20483;-85
2024/01/25 01:54:47;;;;;;;1.70;1.50;;;7.90;98.20;;;;;;5072077;28;20523;-84
2024/01/25 01:57:15;;;;;;;1.60;1.27;;;7.90;98.20;;;;;;5064745;28;20542;-84
2024/01/25 01:59:43;;;;;;;2.23;2.03;;;7.90;98.20;;;;;;5073267;28;20446;-86
2024/01/25 02:02:10;;;;;;;1.60;1.20;;;7.90;98.20;;;;;;5064210;28;20473;-86
2024/01/25 02:04:39;;;;;;;1.60;1.30;;;7.80;98.20;;;;;;5068032;28;20482;-85
2024/01/25 02:07:07;;;;;;;1.60;1.20;;;7.80;98.20;;;;;;5058678;28;20485;-86
2024/01/25 02:09:35;;;;;;;1.60;1.27;;;7.80;98.20;;;;;;5071941;28;20481;-86
2024/01/25 02:12:02;;;;;;;1.60;1.30;;;7.80;98.20;;;;;;5061496;28;20477;-85
2024/01/25 02:14:29;;;;;;;1.60;1.30;;;7.70;98.20;;;;;;5075293;28;20473;-85
2024/01/25 02:16:56;;;;;;;1.60;1.30;;;7.70;98.20;;;;;;5068562;28;20477;-84
2024/01/25 02:19:26;;;;;;;1.60;1.10;;;7.80;98.20;;;;;;5070318;28;20465;-86
2024/01/25 02:22:01;;;;;;;1.60;1.20;;;7.80;98.20;;;;;;5066146;28;20527;-85
2024/01/25 02:24:29;;;;;;;1.60;1.30;;;7.80;98.20;;;;;;5074975;28;20515;-85
2024/01/25 02:26:58;;;;;;;1.60;1.23;;;7.80;98.20;;;;;;5066046;28;20549;-85
2024/01/25 02:29:25;;;;;;;1.60;1.30;;;7.90;98.20;;;;;;5073427;28;20496;-85
2024/01/25 02:31:52;;;;;;;1.60;1.30;;;7.90;98.20;;;;;;5065641;28;20596;-87
2024/01/25 02:34:19;;;;;;;1.60;1.23;;;7.90;98.20;;;;;;5077825;28;20472;-85
2024/01/25 02:36:46;;;;;;;1.60;1.20;;;7.90;98.20;;;;;;5066403;28;20481;-85
2024/01/25 02:39:32;;;;;;;1.60;1.17;;;8.00;98.20;;;;;;5072073;28;20456;-83
2024/01/25 02:42:00;;;;;;;1.60;1.27;;;8.00;98.20;;;;;;5071664;28;21299;-85
2024/01/25 02:47:24;;;;;;;1.60;1.37;;;8.00;98.20;;;;;;5061457;28;20519;-86
2024/01/25 02:49:51;;;;;;;1.60;1.20;;;8.10;98.20;;;;;;5074352;28;20916;-85
2024/01/25 02:52:17;;;;;;;1.60;1.20;;;8.10;98.20;;;;;;5062873;28;20845;-87
2024/01/25 02:54:44;;;;;;;1.60;1.10;;;8.10;98.20;;;;;;5070820;28;20477;-88
2024/01/25 02:57:13;;;;;;;1.60;1.30;;;8.10;98.20;;;;;;5061734;28;20488;-85
2024/01/25 02:59:40;;;;;;;1.60;1.20;;;8.20;98.20;;;;;;5071803;28;20971;-84
2024/01/25 03:02:09;;;;;;;1.60;1.30;;;8.20;98.20;;;;;;5064256;28;20498;-88
2024/01/25 03:04:36;;;;;;;1.60;1.20;;;8.20;98.20;;;;;;5068866;28;20484;-86
2024/01/25 03:07:02;;;;;;;1.60;1.37;;;8.20;98.20;;;;;;5062511;28;20481;-88
2024/01/25 03:09:29;;;;;;;1.60;1.20;;;8.20;98.20;;;;;;5070321;28;20564;-85
2024/01/25 03:11:55;;;;;;;1.60;1.20;;;8.20;98.20;;;;;;5061679;28;20557;-86
2024/01/25 03:14:23;;;;;;;1.60;1.20;;;8.20;98.20;;;;;;5074293;28;20512;-88
2024/01/25 03:16:55;;;;;;;1.60;1.20;;;8.10;98.20;;;;;;5064610;28;20242;-85
2024/01/25 03:19:27;;;;;;;1.60;1.20;;;8.10;98.20;;;;;;5072828;28;20537;-85
2024/01/25 03:21:55;;;;;;;1.60;1.20;;;8.00;98.20;;;;;;5064461;28;20554;-86
2024/01/25 03:24:24;;;;;;;1.60;1.20;;;8.00;98.20;;;;;;5075769;28;20477;-87
2024/01/25 03:26:51;;;;;;;1.60;1.33;;;7.90;98.20;;;;;;5068551;28;20568;-83
2024/01/25 03:29:18;;;;;;;1.60;1.20;;;7.90;98.20;;;;;;5075993;28;20552;-84
2024/01/25 03:31:46;;;;;;;1.60;1.20;;;7.80;98.20;;;;;;5067716;28;20496;-85
2024/01/25 03:34:13;;;;;;;1.60;1.20;;;7.80;98.20;;;;;;5077899;28;20473;-85
2024/01/25 03:36:41;;;;;;;1.60;1.20;;;7.70;98.20;;;;;;5068307;28;20496;-84
2024/01/25 03:39:08;;;;;;;1.60;1.30;;;7.70;98.20;;;;;;5074403;28;20460;-85
2024/01/25 03:41:35;;;;;;;1.60;1.20;;;7.60;98.20;;;;;;5064211;28;20473;-83
2024/01/25 03:44:02;;;;;;;1.60;1.20;;;7.60;98.20;;;;;;5074626;28;20530;-85
2024/01/25 03:46:28;;;;;;;1.60;1.10;;;7.60;98.20;;;;;;5063129;28;21109;-84
2024/01/25 03:48:59;;;;;;;1.60;1.20;;;7.50;98.20;;;;;;5074781;28;20557;-85
2024/01/25 03:51:26;;;;;;;1.60;1.20;;;7.50;98.20;;;;;;5064252;28;20473;-84
2024/01/25 03:53:55;;;;;;;1.70;1.40;;;7.40;98.20;;;;;;5074771;28;20489;-86
2024/01/25 03:56:24;;;;;;;1.60;1.30;;;7.40;98.20;;;;;;5066098;28;20565;-84
2024/01/25 03:58:55;;;;;;;1.60;1.20;;;7.30;98.20;;;;;;5074618;28;20454;-85
2024/01/25 04:01:22;;;;;;;1.60;1.20;;;7.30;98.20;;;;;;5064211;28;20487;-85
2024/01/25 04:03:49;;;;;;;1.60;1.27;;;7.30;98.20;;;;;;5062679;28;21028;-84
2024/01/25 04:06:17;;;;;;;1.60;1.20;;;7.30;98.20;;;;;;5066655;28;20897;-84
2024/01/25 04:08:56;;;;;;;1.60;1.20;;;7.20;98.20;;;;;;5073702;28;20469;-84
2024/01/25 04:11:23;;;;;;;1.60;1.30;;;7.20;98.20;;;;;;5064528;28;20546;-85
2024/01/25 04:13:50;;;;;;;1.63;1.37;;;7.20;98.20;;;;;;5072040;28;20505;-84
2024/01/25 04:16:17;;;;;;;1.60;1.20;;;7.20;98.20;;;;;;5063927;28;20544;-84
2024/01/25 04:18:47;;;;;;;1.60;1.10;;;7.10;98.20;;;;;;5076465;28;20532;-85
2024/01/25 04:22:08;;;;;;;1.60;1.40;;;7.10;98.20;;;;;;5078619;28;20651;-82
2024/01/25 04:24:35;;;;;;;1.60;1.30;;;7.00;98.20;;;;;;5072533;28;20476;-83
2024/01/25 04:27:19;;;;;;;1.60;1.23;;;7.00;98.20;;;;;;5064654;28;20484;-85
2024/01/25 04:30:00;;;;;;;1.60;1.20;;;7.00;98.20;;;;;;5076117;28;20552;-85
2024/01/25 04:32:31;;;;;;;1.63;1.37;;;6.90;98.20;;;;;;5059197;28;20485;-84
2024/01/25 04:35:14;;;;;;;1.60;1.20;;;6.90;98.20;;;;;;5078263;28;20945;-85
2024/01/25 04:37:45;;;;;;;1.60;1.20;;;6.80;98.20;;;;;;5059897;28;20482;-83
2024/01/25 04:40:15;;;;;;;1.60;1.30;;;6.80;98.20;;;;;;5074755;28;20506;-82
2024/01/25 04:42:42;;;;;;;1.67;1.30;;;6.80;98.20;;;;;;5063897;28;20488;-83
2024/01/25 04:45:15;;;;;;;1.70;1.30;;;6.80;98.20;;;;;;5078279;28;20458;-83
2024/01/25 04:47:46;;;;;;;1.60;1.20;;;6.70;98.20;;;;;;5064756;28;20477;-83
2024/01/25 04:50:21;;;;;;;1.60;1.30;;;6.70;98.20;;;;;;5075274;28;20481;-83
2024/01/25 04:52:55;;;;;;;1.60;1.30;;;6.70;98.20;;;;;;5065837;28;20490;-83
2024/01/25 04:55:27;;;;;;;1.67;1.30;;;6.60;98.20;;;;;;5077353;28;20454;-83
2024/01/25 04:57:54;;;;;;;1.60;1.30;;;6.60;98.20;;;;;;5066493;28;21066;-82
2024/01/25 05:00:25;;;;;;;1.60;1.30;;;6.60;98.20;;;;;;5087916;28;20454;-83
2024/01/25 05:03:08;;;;;;;2.03;1.83;;;6.50;98.20;;;;;;5065919;28;20486;-83
2024/01/25 05:05:34;;;;;;;1.60;1.30;;;6.50;98.20;;;;;;5075631;28;20485;-83
2024/01/25 05:08:06;;;;;;;1.60;1.30;;;6.40;98.20;;;;;;5056766;28;20473;-83
2024/01/25 05:10:39;;;;;;;1.60;1.30;;;6.40;98.20;;;;;;5071677;28;20482;-83
2024/01/25 05:13:10;;;;;;;1.63;1.33;;;6.40;98.20;;;;;;5061760;28;20514;-82
2024/01/25 05:15:37;;;;;;;1.60;1.40;;;6.40;98.20;;;;;;5073043;28;20454;-83
2024/01/25 05:18:11;;;;;;;1.67;1.30;;;6.30;98.20;;;;;;5064093;28;20469;-83
2024/01/25 05:23:26;;;;;;;1.60;1.20;;;6.20;98.20;;;;;;5048639;28;20552;-84
2024/01/25 05:26:01;;;;;;;1.60;1.30;;;6.20;98.20;;;;;;5063078;28;20516;-83
2024/01/25 05:28:31;;;;;;;1.60;1.20;;;6.20;98.20;;;;;;5067542;28;20469;-83
2024/01/25 05:31:03;;;;;;;1.63;1.30;;;6.20;98.20;;;;;;5063249;28;21137;-82
2024/01/25 05:33:33;;;;;;;1.60;1.30;;;6.10;98.20;;;;;;5068212;28;20481;-83
2024/01/25 05:36:20;;;;;;;1.60;1.30;;;6.10;98.20;;;;;;5069317;28;20460;-84
2024/01/25 05:38:48;;;;;;;1.60;1.30;;;6.00;98.20;;;;;;5067799;28;20590;-82
2024/01/25 05:41:15;;;;;;;1.67;1.30;;;6.00;98.20;;;;;;5066699;28;20470;-82
2024/01/25 05:43:42;;;;;;;1.67;1.40;;;5.90;98.20;;;;;;5074409;28;20513;-82
2024/01/25 05:46:09;;;;;;;1.63;1.33;;;5.90;98.20;;;;;;5067925;28;20498;-83
2024/01/25 05:48:39;;;;;;;1.60;1.30;;;5.80;98.20;;;;;;5074370;28;20842;-83
2024/01/25 05:51:08;;;;;;;1.70;1.50;;;5.80;98.20;;;;;;5067017;28;20561;-83
2024/01/25 05:53:38;;;;;;;1.63;1.40;;;5.70;98.20;;;;;;5062320;28;20508;-84
2024/01/25 05:56:18;;;;;;;;;;;;;;;;;;;;;
2024/01/25 05:58:46;;;;;;;1.60;1.30;;;5.70;98.20;;;;;;5066173;28;20500;-83
2024/01/25 06:01:12;;;;;;;1.60;1.30;;;5.70;98.20;;;;;;5068363;28;20476;-84
2024/01/25 06:03:39;;;;;;;1.60;1.30;;;5.60;98.20;;;;;;5084239;28;20538;-84
2024/01/25 06:06:07;;;;;;;1.70;1.40;;;5.60;98.20;;;;;;5066317;28;20465;-83
2024/01/25 06:08:35;;;;;;;1.67;1.40;;;5.60;98.20;;;;;;5082797;28;20523;-83
2024/01/25 06:11:02;;;;;;;1.60;1.30;;;5.60;98.20;;;;;;5062545;28;21141;-83
2024/01/25 06:13:35;;;;;;;1.67;1.40;;;5.60;98.20;;;;;;5085153;28;20461;-84
2024/01/25 06:16:04;;;;;;;1.67;1.40;;;5.60;98.20;;;;;;5063250;28;20508;-83
2024/01/25 06:18:46;;;;;;;1.67;1.33;;;5.60;98.20;;;;;;5088428;28;20507;-83
2024/01/25 06:21:16;;;;;;;1.60;1.30;;;5.60;98.20;;;;;;5063284;28;20491;-84
2024/01/25 06:23:44;;;;;;;1.70;1.47;;;5.50;98.20;;;;;;5072323;28;20508;-84
2024/01/25 06:26:10;;;;;;;1.63;1.33;;;5.50;98.20;;;;;;5069758;28;20472;-83
2024/01/25 06:28:40;;;;;;;4.13;3.93;;;5.50;98.20;;;;;;5079553;28;20490;-84
2024/01/25 06:31:07;;;;;;;1.67;1.40;;;5.50;98.20;;;;;;5067080;28;20493;-83
2024/01/25 06:33:34;;;;;;;1.60;1.30;;;5.50;98.20;;;;;;5078824;28;20474;-84
2024/01/25 06:36:02;;;;;;;1.60;1.30;;;5.50;98.20;;;;;;5070024;28;20462;-84
2024/01/25 06:38:31;;;;;;;1.60;1.40;;;5.40;98.20;;;;;;5085108;28;20461;-83
2024/01/25 06:41:17;;;;;;;1.70;1.40;;;5.40;98.20;;;;;;5064964;28;20491;-84
2024/01/25 06:43:45;;;;;;;1.60;1.30;;;5.40;98.20;;;;;;5077108;28;20490;-83
2024/01/25 06:46:11;;;;;;;1.60;1.30;;;5.40;98.20;;;;;;5064556;28;20482;-83
2024/01/25 06:48:38;;;;;;;1.70;1.50;;;5.40;98.20;;;;;;5084333;28;20466;-84
2024/01/25 06:51:05;;;;;;;1.60;1.40;;;5.40;98.20;;;;;;5071051;28;20531;-84
2024/01/25 06:53:35;;;;;;;1.70;1.40;;;5.40;98.20;;;;;;5080618;28;20475;-84
2024/01/25 06:56:02;;;;;;;1.70;1.40;;;5.40;98.20;;;;;;5068101;28;21140;-84
2024/01/25 06:58:31;;;;;;;1.60;1.30;;;5.40;98.20;;;;;;5083561;28;20479;-83
2024/01/25 07:00:59;;;;;;;1.70;1.50;;;5.40;98.20;;;;;;5070591;28;20458;-82
2024/01/25 07:03:26;;;;;;;1.60;1.30;;;5.30;98.20;;;;;;5084355;28;21020;-79
2024/01/25 07:05:53;;;;;;;1.70;1.50;;;5.30;98.20;;;;;;5067635;28;20453;-79
2024/01/25 07:08:21;;;;;;;1.67;1.30;;;5.30;98.20;;;;;;5077999;28;20457;-80
2024/01/25 07:10:48;;;;;;;1.63;1.40;;;5.30;98.20;;;;;;5083579;28;20576;-79
2024/01/25 07:13:15;;;;;;;1.60;1.30;;;5.20;98.20;;;;;;5070988;28;20481;-78
2024/01/25 07:15:42;;;;;;;1.60;1.30;;;5.20;98.20;;;;;;5062633;28;22182;-79
2024/01/25 07:18:10;;;;;;;1.67;1.40;;;5.20;98.20;;;;;;5063870;28;20489;-79
2024/01/25 07:20:37;;;;;;;1.60;1.30;;;5.20;98.20;;;;;;5055500;28;20457;-79
2024/01/25 07:23:07;;;;;;;1.70;1.47;;;5.20;98.20;;;;;;5052158;28;20547;-78
2024/01/25 07:25:34;;;;;;;1.70;1.40;;;5.10;98.20;;;;;;5061911;28;20469;-79
2024/01/25 07:28:00;;;;;;;1.60;1.40;;;5.10;98.20;;;;;;5044952;28;20473;-77
2024/01/25 07:30:27;;;;;;;1.60;1.30;;;5.10;98.20;;;;;;5062500;28;20523;-78
2024/01/25 07:32:54;;;;;;;1.70;1.50;;;5.00;98.20;;;;;;5060488;28;20476;-78
2024/01/25 07:35:23;;;;;;;1.67;1.37;;;5.00;98.20;;;;;;5061824;28;20643;-78
2024/01/25 07:37:50;;;;;;;1.70;1.40;;;5.00;98.20;;;;;;5063047;28;20671;-80
2024/01/25 07:40:18;;;;;;;1.60;1.30;;;5.00;98.20;;;;;;5063303;28;20481;-78
2024/01/25 07:42:48;;;;;;;1.67;1.40;;;5.00;98.20;;;;;;5055232;28;20485;-79
2024/01/25 07:45:15;;;;;;;1.67;1.40;;;5.10;98.20;;;;;;5053608;28;20573;-79
2024/01/25 07:47:42;;;;;;;1.70;1.40;;;5.10;98.20;;;;;;5049663;28;20527;-80
2024/01/25 07:50:09;;;;;;;1.60;1.37;;;5.20;98.20;;;;;;5064173;28;20457;-80
2024/01/25 07:52:44;;;;;;;1.70;1.47;;;5.20;98.20;;;;;;5140497;22;20484;-82
2024/01/25 07:55:19;;;;;;;1.60;1.33;;;5.20;98.20;;;;;;5059658;28;20469;-82
2024/01/25 07:57:49;;;;;;;1.60;1.30;;;5.20;98.20;;;;;;5052484;28;20513;-82
2024/01/25 08:00:24;;;;;;;1.60;1.30;;;5.30;98.20;;;;;;5062764;28;20498;-83
2024/01/25 08:02:51;;;;;;;1.60;1.30;;;5.40;98.20;;;;;;5031413;28;20486;-83
2024/01/25 08:05:21;;;;;;;1.60;1.30;;;5.40;98.20;;;;;;5037436;28;20459;-84
2024/01/25 08:08:19;;;;;;;1.63;1.33;;;5.50;98.20;;;;;;5030350;28;20545;-82
2024/01/25 08:10:46;;;;;;;1.60;1.30;;;5.50;98.20;;;;;;5035724;28;21236;-82
2024/01/25 08:13:14;;;;;;;1.70;1.50;;;5.60;98.20;;;;;;5039078;28;20668;-84
2024/01/25 08:16:35;;;;;;;;;;;;;;;;;;;;;
2024/01/25 08:19:25;;;;;;;1.70;1.53;;;5.80;98.20;;;;;;5026688;28;20503;-83
2024/01/25 08:22:10;;;;;;;1.60;1.30;;;5.90;98.20;;;;;;5029279;28;20556;-83
2024/01/25 08:24:57;;;;;;;1.63;1.30;;;6.00;98.20;;;;;;5036928;28;20486;-84
2024/01/25 08:27:24;;;;;;;1.63;1.30;;;6.10;98.20;;;;;;5027599;28;20526;-82
2024/01/25 08:29:51;;;;;;;1.60;1.20;;;6.10;98.20;;;;;;5039149;28;20468;-82
2024/01/25 08:32:17;;;;;;;1.70;1.50;;;6.20;98.20;;;;;;5032010;28;20471;-82
2024/01/25 08:34:47;;;;;;;4.00;3.67;;;6.20;98.20;;;;;;5041857;28;20463;-82
2024/01/25 08:37:14;;;;;;;1.60;1.30;;;6.30;98.20;;;;;;5034795;28;20510;-82
2024/01/25 08:39:49;;;;;;;1.60;1.30;;;6.40;98.20;;;;;;5041909;28;20949;-82
2024/01/25 08:42:21;;;;;;;1.67;1.37;;;6.40;98.20;;;;;;5030402;28;21183;-82
2024/01/25 08:44:50;;;;;;;1.60;1.20;;;6.50;98.20;;;;;;5041378;28;20463;-82
2024/01/25 08:47:19;;;;;;;1.60;1.30;;;6.50;98.20;;;;;;5032530;28;20547;-82
2024/01/25 08:49:50;;;;;;;1.60;1.30;;;6.60;98.20;;;;;;5035616;28;20470;-81
2024/01/25 08:52:19;;;;;;;1.60;1.30;;;6.60;98.20;;;;;;5028088;28;20499;-81
2024/01/25 08:55:15;;;;;;;1.60;1.30;;;6.70;98.20;;;;;;5042295;28;20475;-81
2024/01/25 08:57:42;;;;;;;1.60;1.30;;;6.70;98.20;;;;;;4982945;28;20517;-82
2024/01/25 09:00:10;;;;;;;1.60;1.30;;;6.80;98.20;;;;;;5022494;28;20554;-82
2024/01/25 09:02:37;;;;;;;1.60;1.20;;;6.90;98.20;;;;;;5029440;28;20475;-79
2024/01/25 09:05:05;;;;;;;1.60;1.20;;;6.90;98.20;;;;;;5039911;28;20522;-82
2024/01/25 09:07:34;;;;;;;1.67;1.30;;;7.00;98.20;;;;;;5031604;28;20510;-83
2024/01/25 09:10:03;;;;;;;1.70;1.50;;;7.10;98.20;;;;;;5042959;28;20538;-79
2024/01/25 09:12:31;;;;;;;1.60;1.20;;;7.10;98.20;;;;;;5031258;28;20535;-82
2024/01/25 09:14:58;;;;;;;1.60;1.23;;;7.20;98.20;;;;;;5033628;28;20486;-79
2024/01/25 09:17:25;;;;;;;1.70;1.30;;;7.20;98.20;;;;;;5036415;28;20544;-80
2024/01/25 09:19:52;;;;;;;1.60;1.20;;;7.30;98.20;;;;;;5050673;28;20451;-79
2024/01/25 09:22:20;;;;;;;1.67;1.30;;;7.30;98.20;;;;;;5042746;28;20602;-79
2024/01/25 09:24:47;;;;;;;1.60;1.20;;;7.40;98.20;;;;;;5047267;28;20519;-80
2024/01/25 09:27:14;;;;;;;1.60;1.30;;;7.40;98.20;;;;;;5038579;28;21020;-81
2024/01/25 09:29:42;;;;;;;1.60;1.20;;;7.40;98.20;;;;;;5055254;28;20499;-82
2024/01/25 09:32:10;;;;;;;1.60;1.20;;;7.50;98.20;;;;;;5039614;28;20490;-81
2024/01/25 09:34:37;;;;;;;1.60;1.20;;;7.60;98.20;;;;;;5051220;28;20463;-81
2024/01/25 09:37:05;;;;;;;1.60;1.20;;;7.60;98.20;;;;;;5032682;28;20478;-81
2024/01/25 09:39:47;;;;;;;1.60;1.20;;;7.70;98.20;;;;;;5043957;28;20704;-79
2024/01/25 09:42:15;;;;;;;1.60;1.30;;;7.70;98.20;;;;;;5025953;28;20711;-80
2024/01/25 09:44:44;;;;;;;1.67;1.37;;;7.90;98.20;;;;;;5049326;28;20524;-81
2024/01/25 09:47:12;;;;;;;1.60;1.20;;;8.00;98.20;;;;;;5036534;28;20514;-81
2024/01/25 09:49:39;;;;;;;1.60;1.30;;;8.00;98.20;;;;;;5054862;28;20466;-80
2024/01/25 09:52:07;;;;;;;1.60;1.20;;;8.10;98.20;;;;;;5040823;28;20838;-82
2024/01/25 09:54:36;;;;;;;1.60;1.20;;;8.10;98.20;;;;;;5054551;28;20459;-79
2024/01/25 09:57:07;;;;;;;1.60;1.20;;;8.10;98.20;;;;;;5027287;28;20533;-80
2024/01/25 09:59:34;;;;;;;1.60;1.20;;;8.20;98.20;;;;;;5054480;28;20466;-81
2024/01/25 10:02:04;;;;;;;1.60;1.30;;;8.20;98.20;;;;;;5037448;28;20474;-82
2024/01/25 10:04:31;;;;;;;1.60;1.20;;;8.30;98.20;;;;;;5053001;28;20463;-81
2024/01/25 10:06:59;;;;;;;1.60;1.10;;;8.30;98.20;;;;;;5040721;28;20553;-80
2024/01/25 10:09:27;;;;;;;1.60;1.20;;;8.40;98.20;;;;;;5050024;28;20462;-80
2024/01/25 10:11:53;;;;;;;1.60;1.30;;;8.50;98.20;;;;;;5024051;28;20486;-81
2024/01/25 10:14:23;;;;;;;1.60;1.10;;;8.60;98.20;;;;;;5037288;28;20588;-80
2024/01/25 10:16:51;;;;;;;1.60;1.20;;;8.60;98.20;;;;;;5041951;28;20542;-82
2024/01/25 10:19:21;;;;;;;1.60;1.20;;;8.70;98.20;;;;;;5052398;28;20550;-81
2024/01/25 10:21:47;;;;;;;1.60;1.10;;;8.80;98.20;;;;;;5037346;28;20554;-81
2024/01/25 10:24:14;;;;;;;1.60;1.20;;;8.80;98.20;;;;;;5044326;28;20556;-81
2024/01/25 10:26:42;;;;;;;1.60;1.20;;;8.90;98.20;;;;;;5028502;28;20498;-81
2024/01/25 10:29:10;;;;;;;1.60;1.10;;;8.90;98.20;;;;;;5049892;28;20466;-81
2024/01/25 10:31:40;;;;;;;1.60;1.20;;;9.00;98.20;;;;;;5043732;28;20482;-80
2024/01/25 10:34:09;;;;;;;1.60;1.23;;;9.10;98.20;;;;;;5053752;28;20628;-80
2024/01/25 10:36:39;;;;;;;1.60;1.10;;;9.20;98.20;;;;;;5043985;28;20545;-80
2024/01/25 10:39:09;;;;;;;1.60;1.20;;;9.30;98.20;;;;;;5045051;28;20455;-82
2024/01/25 10:41:44;;;;;;;1.60;1.20;;;9.40;98.20;;;;;;5034423;28;20557;-80
2024/01/25 10:44:11;;;;;;;1.60;1.10;;;9.40;98.20;;;;;;5047663;28;21051;-81
2024/01/25 10:46:39;;;;;;;1.60;1.10;;;9.40;98.20;;;;;;5040108;28;20570;-82
2024/01/25 10:49:08;;;;;;;1.60;1.10;;;9.40;98.20;;;;;;5049236;28;20455;-81
2024/01/25 10:51:36;;;;;;;1.60;1.20;;;9.40;98.20;;;;;;5040383;28;20551;-82
2024/01/25 10:54:06;;;;;;;1.60;1.20;;;9.40;98.20;;;;;;5049971;28;20640;-82
2024/01/25 10:56:32;;;;;;;1.60;1.30;;;9.40;98.20;;;;;;5040794;28;20487;-83
2024/01/25 10:59:00;;;;;;;1.60;1.20;;;9.50;98.20;;;;;;5050720;28;20473;-81
2024/01/25 11:01:30;;;;;;;1.60;1.23;;;9.50;98.20;;;;;;5041630;28;20561;-82
2024/01/25 11:03:57;;;;;;;1.60;1.20;;;9.50;98.20;;;;;;5054710;28;20464;-82
2024/01/25 11:06:24;;;;;;;1.60;1.10;;;9.60;98.20;;;;;;5033007;28;20467;-84
2024/01/25 11:08:52;;;;;;;1.60;1.20;;;9.60;98.20;;;;;;5053951;28;20467;-84
2024/01/25 11:11:20;;;;;;;1.60;1.20;;;9.60;98.20;;;;;;5032491;28;20490;-83
2024/01/25 11:13:47;;;;;;;1.60;1.10;;;9.70;98.20;;;;;;5048126;28;20491;-84
2024/01/25 11:16:15;;;;;;;1.60;1.20;;;9.70;98.20;;;;;;5043604;28;20467;-80
2024/01/25 11:18:52;;;;;;;1.60;1.10;;;9.80;98.20;;;;;;5053258;28;20465;-82
2024/01/25 11:21:30;;;;;;;1.70;1.40;;;9.80;98.20;;;;;;5044285;28;20705;-80
2024/01/25 11:24:03;;;;;;;1.60;1.20;;;9.90;98.20;;;;;;5053303;28;20533;-81
2024/01/25 11:26:30;;;;;;;1.60;1.30;;;9.90;98.20;;;;;;5043508;28;20510;-81
2024/01/25 11:28:59;;;;;;;1.60;1.20;;;9.90;98.20;;;;;;5056827;28;20501;-81
2024/01/25 11:31:27;;;;;;;1.60;1.20;;;10.00;98.20;;;;;;5035295;28;20546;-84
2024/01/25 11:33:57;;;;;;;1.60;1.20;;;10.00;98.20;;;;;;5056553;28;20619;-81
2024/01/25 11:36:25;;;;;;;1.60;1.10;;;10.00;98.20;;;;;;5047024;28;20491;-80
2024/01/25 11:38:52;;;;;;;1.60;1.10;;;10.10;98.20;;;;;;5058039;28;20463;-79
2024/01/25 11:41:20;;;;;;;1.60;1.10;;;10.20;98.20;;;;;;5046614;28;20486;-81
2024/01/25 11:43:49;;;;;;;1.60;1.20;;;10.30;98.20;;;;;;5047391;28;20988;-80
2024/01/25 11:46:17;;;;;;;1.60;1.10;;;10.30;98.20;;;;;;5045991;28;20486;-81
2024/01/25 11:48:44;;;;;;;1.60;1.10;;;10.40;98.20;;;;;;5052660;28;20491;-84
2024/01/25 11:51:12;;;;;;;1.60;1.10;;;10.40;98.20;;;;;;5044909;28;20513;-82
2024/01/25 11:53:39;;;;;;;1.60;1.20;;;10.50;98.20;;;;;;5048031;28;20491;-82
2024/01/25 11:56:09;;;;;;;1.60;1.00;;;10.50;98.20;;;;;;5046581;28;20533;-83
2024/01/25 11:58:38;;;;;;;1.60;1.10;;;10.50;98.20;;;;;;5044573;28;20460;-81
2024/01/25 12:01:07;;;;;;;1.60;1.20;;;10.60;98.20;;;;;;5043350;28;20471;-82
2024/01/25 12:03:36;;;;;;;1.60;1.10;;;10.60;98.20;;;;;;5044605;28;20455;-81
2024/01/25 12:06:04;;;;;;;1.60;1.00;;;10.60;98.20;;;;;;5045739;28;20466;-81
2024/01/25 12:08:32;;;;;;;1.57;1.07;;;10.60;98.20;;;;;;5035858;28;20478;-81
2024/01/25 12:11:05;;;;;;;1.60;1.10;;;10.60;98.20;;;;;;5044252;28;20489;-80
2024/01/25 12:13:39;;;;;;;1.60;1.00;;;10.60;98.20;;;;;;5048803;28;20559;-80
2024/01/25 12:16:09;;;;;;;1.60;1.20;;;10.70;98.20;;;;;;5041689;28;20790;-80
2024/01/25 12:18:37;;;;;;;1.60;1.00;;;10.70;98.20;;;;;;5049133;28;20839;-81
2024/01/25 12:21:05;;;;;;;1.60;1.20;;;10.70;98.20;;;;;;5041981;28;21551;-79
2024/01/25 12:23:33;;;;;;;1.60;1.20;;;10.70;98.20;;;;;;5034592;28;20485;-79
2024/01/25 12:26:01;;;;;;;1.53;1.00;;;10.80;98.20;;;;;;5039404;28;20459;-80
2024/01/25 12:28:29;;;;;;;1.60;1.10;;;10.70;98.20;;;;;;5045649;28;20486;-81
2024/01/25 12:30:58;;;;;;;1.60;1.20;;;10.70;98.20;;;;;;5044545;28;20482;-80
2024/01/25 12:33:25;;;;;;;1.60;1.13;;;10.80;98.20;;;;;;5048001;28;20489;-80
2024/01/25 12:35:53;;;;;;;1.60;1.10;;;10.80;98.20;;;;;;5040393;28;20474;-81
2024/01/25 12:38:20;;;;;;;1.60;1.00;;;10.80;98.20;;;;;;5051647;28;20529;-82
2024/01/25 12:40:48;;;;;;;1.60;1.20;;;10.80;98.20;;;;;;5046192;28;20494;-78
2024/01/25 12:43:15;;;;;;;1.57;1.00;;;10.80;98.20;;;;;;5057424;28;20469;-83
2024/01/25 12:45:42;;;;;;;1.60;1.10;;;10.90;98.20;;;;;;5062317;28;20539;-83
2024/01/25 12:48:10;;;;;;;1.60;1.10;;;10.90;98.20;;;;;;5041444;28;20565;-82
2024/01/25 12:50:38;;;;;;;1.60;1.10;;;10.80;98.20;;;;;;5055177;28;20473;-80
2024/01/25 12:53:06;;;;;;;2.13;1.83;;;10.80;98.20;;;;;;5035469;28;20562;-83
2024/01/25 12:55:34;;;;;;;1.60;1.10;;;10.80;98.20;;;;;;5041041;28;20532;-82
2024/01/25 12:58:01;;;;;;;1.60;1.10;;;10.80;98.20;;;;;;5035852;28;20483;-80
2024/01/25 13:00:28;;;;;;;1.60;1.07;;;10.80;98.20;;;;;;5044182;28;20472;-82
2024/01/25 13:02:56;;;;;;;1.60;1.20;;;10.80;98.20;;;;;;5022536;28;21914;-81
2024/01/25 13:05:24;;;;;;;1.60;1.10;;;10.80;98.20;;;;;;5035622;28;20474;-82
2024/01/25 13:07:51;;;;;;;1.60;1.10;;;10.80;98.20;;;;;;5029054;28;20475;-82
2024/01/25 13:10:18;;;;;;;1.53;1.10;;;10.80;98.20;;;;;;5028192;28;20526;-81
2024/01/25 13:12:45;;;;;;;1.57;1.00;;;10.80;98.20;;;;;;5024328;28;20558;-81
2024/01/25 13:15:12;;;;;;;1.57;1.00;;;10.80;98.20;;;;;;5056389;28;20537;-82